sensor_id;sensor_type;location;lat;lon;timestamp;pressure;altitude;pressure_sealevel;temperature
11849;BMP180;5983;49.966;8.052;2023-05-07T00:02:04;100528.00;;;15.10
11849;BMP180;5983;49.966;8.052;2023-05-07T00:04:31;100535.00;;;15.10
11849;BMP180;5983;49.966;8.052;2023-05-07T00:07:03;100525.00;;;15.00
11849;BMP180;5983;49.966;8.052;2023-05-07T00:09:31;100529.00;;;14.90
11849;BMP180;5983;49.966;8.052;2023-05-07T00:11:57;100531.00;;;14.90
11849;BMP180;5983;49.966;8.052;2023-05-07T00:14:25;100539.00;;;14.90
11849;BMP180;5983;49.966;8.052;2023-05-07T00:16:52;100533.00;;;14.80
11849;BMP180;5983;49.966;8.052;2023-05-07T00:19:18;100532.00;;;14.80
11849;BMP180;5983;49.966;8.052;2023-05-07T00:21:45;100530.00;;;14.80
11849;BMP180;5983;49.966;8.052;2023-05-07T00:24:13;100535.00;;;14.80
11849;BMP180;5983;49.966;8.052;2023-05-07T00:26:40;100529.00;;;14.70
11849;BMP180;5983;49.966;8.052;2023-05-07T00:29:07;100525.00;;;14.70
11849;BMP180;5983;49.966;8.052;2023-05-07T00:31:33;100519.00;;;14.60
11849;BMP180;5983;49.966;8.052;2023-05-07T00:34:00;100516.00;;;14.60
11849;BMP180;5983;49.966;8.052;2023-05-07T00:36:27;100515.00;;;14.60
11849;BMP180;5983;49.966;8.052;2023-05-07T00:38:54;100509.00;;;14.60
11849;BMP180;5983;49.966;8.052;2023-05-07T00:41:23;100509.00;;;14.60
11849;BMP180;5983;49.966;8.052;2023-05-07T00:43:50;100517.00;;;14.50
11849;BMP180;5983;49.966;8.052;2023-05-07T00:46:20;100515.00;;;14.40
11849;BMP180;5983;49.966;8.052;2023-05-07T00:48:48;100525.00;;;14.40
11849;BMP180;5983;49.966;8.052;2023-05-07T00:51:15;100526.00;;;14.40
11849;BMP180;5983;49.966;8.052;2023-05-07T00:53:42;100519.00;;;14.40
11849;BMP180;5983;49.966;8.052;2023-05-07T00:56:09;100507.00;;;14.40
11849;BMP180;5983;49.966;8.052;2023-05-07T00:58:37;100512.00;;;14.30
11849;BMP180;5983;49.966;8.052;2023-05-07T01:01:04;100507.00;;;14.30
11849;BMP180;5983;49.966;8.052;2023-05-07T01:03:31;100505.00;;;14.30
11849;BMP180;5983;49.966;8.052;2023-05-07T01:05:59;100505.00;;;14.30
11849;BMP180;5983;49.966;8.052;2023-05-07T01:08:27;100511.00;;;14.20
11849;BMP180;5983;49.966;8.052;2023-05-07T01:10:56;100520.00;;;14.20
11849;BMP180;5983;49.966;8.052;2023-05-07T01:13:24;100513.00;;;14.10
11849;BMP180;5983;49.966;8.052;2023-05-07T01:15:52;100511.00;;;14.10
11849;BMP180;5983;49.966;8.052;2023-05-07T01:18:19;100505.00;;;14.10
11849;BMP180;5983;49.966;8.052;2023-05-07T01:20:45;100496.00;;;14.10
11849;BMP180;5983;49.966;8.052;2023-05-07T01:23:14;100492.00;;;14.10
11849;BMP180;5983;49.966;8.052;2023-05-07T01:25:41;100496.00;;;14.10
11849;BMP180;5983;49.966;8.052;2023-05-07T01:28:08;100496.00;;;14.00
11849;BMP180;5983;49.966;8.052;2023-05-07T01:30:35;100501.00;;;13.90
11849;BMP180;5983;49.966;8.052;2023-05-07T01:33:06;100500.00;;;13.90
11849;BMP180;5983;49.966;8.052;2023-05-07T01:35:37;100499.00;;;13.90
11849;BMP180;5983;49.966;8.052;2023-05-07T01:38:05;100491.00;;;13.90
11849;BMP180;5983;49.966;8.052;2023-05-07T01:40:34;100489.00;;;13.90
11849;BMP180;5983;49.966;8.052;2023-05-07T01:43:02;100481.00;;;13.90
11849;BMP180;5983;49.966;8.052;2023-05-07T01:45:30;100486.00;;;14.00
11849;BMP180;5983;49.966;8.052;2023-05-07T01:47:57;100483.00;;;13.90
11849;BMP180;5983;49.966;8.052;2023-05-07T01:50:25;100484.00;;;13.90
11849;BMP180;5983;49.966;8.052;2023-05-07T01:52:52;100487.00;;;13.90
11849;BMP180;5983;49.966;8.052;2023-05-07T01:55:19;100484.00;;;13.90
11849;BMP180;5983;49.966;8.052;2023-05-07T01:57:47;100478.00;;;13.90
11849;BMP180;5983;49.966;8.052;2023-05-07T02:00:14;100486.00;;;13.90
11849;BMP180;5983;49.966;8.052;2023-05-07T02:02:40;100482.00;;;13.90
11849;BMP180;5983;49.966;8.052;2023-05-07T02:05:08;100483.00;;;13.90
11849;BMP180;5983;49.966;8.052;2023-05-07T02:07:34;100485.00;;;13.90
11849;BMP180;5983;49.966;8.052;2023-05-07T02:10:01;100484.00;;;13.90
11849;BMP180;5983;49.966;8.052;2023-05-07T02:12:28;100485.00;;;13.90
11849;BMP180;5983;49.966;8.052;2023-05-07T02:14:56;100484.00;;;13.90
11849;BMP180;5983;49.966;8.052;2023-05-07T02:17:23;100488.00;;;14.00
11849;BMP180;5983;49.966;8.052;2023-05-07T02:19:50;100487.00;;;14.00
11849;BMP180;5983;49.966;8.052;2023-05-07T02:22:17;100495.00;;;14.00
11849;BMP180;5983;49.966;8.052;2023-05-07T02:24:44;100495.00;;;14.00
11849;BMP180;5983;49.966;8.052;2023-05-07T02:27:11;100493.00;;;13.90
11849;BMP180;5983;49.966;8.052;2023-05-07T02:29:37;100484.00;;;13.90
11849;BMP180;5983;49.966;8.052;2023-05-07T02:32:05;100493.00;;;14.00
11849;BMP180;5983;49.966;8.052;2023-05-07T02:34:32;100491.00;;;14.00
11849;BMP180;5983;49.966;8.052;2023-05-07T02:36:59;100495.00;;;14.00
11849;BMP180;5983;49.966;8.052;2023-05-07T02:39:25;100493.00;;;14.00
11849;BMP180;5983;49.966;8.052;2023-05-07T02:41:52;100490.00;;;14.00
11849;BMP180;5983;49.966;8.052;2023-05-07T02:44:19;100505.00;;;14.00
11849;BMP180;5983;49.966;8.052;2023-05-07T02:46:45;100502.00;;;14.00
11849;BMP180;5983;49.966;8.052;2023-05-07T02:49:13;100507.00;;;14.00
11849;BMP180;5983;49.966;8.052;2023-05-07T02:51:40;100503.00;;;14.00
11849;BMP180;5983;49.966;8.052;2023-05-07T02:54:07;100488.00;;;14.00
11849;BMP180;5983;49.966;8.052;2023-05-07T02:56:33;100494.00;;;14.00
11849;BMP180;5983;49.966;8.052;2023-05-07T02:59:00;100502.00;;;14.00
11849;BMP180;5983;49.966;8.052;2023-05-07T03:01:27;100498.00;;;14.00
11849;BMP180;5983;49.966;8.052;2023-05-07T03:03:54;100500.00;;;14.00
11849;BMP180;5983;49.966;8.052;2023-05-07T03:06:22;100489.00;;;14.00
11849;BMP180;5983;49.966;8.052;2023-05-07T03:08:49;100492.00;;;14.00
11849;BMP180;5983;49.966;8.052;2023-05-07T03:11:15;100491.00;;;14.00
11849;BMP180;5983;49.966;8.052;2023-05-07T03:13:42;100482.00;;;14.00
11849;BMP180;5983;49.966;8.052;2023-05-07T03:16:09;100480.00;;;14.00
11849;BMP180;5983;49.966;8.052;2023-05-07T03:18:35;100478.00;;;14.10
11849;BMP180;5983;49.966;8.052;2023-05-07T03:21:02;100475.00;;;14.10
11849;BMP180;5983;49.966;8.052;2023-05-07T03:23:30;100474.00;;;14.10
11849;BMP180;5983;49.966;8.052;2023-05-07T03:25:57;100471.00;;;14.10
11849;BMP180;5983;49.966;8.052;2023-05-07T03:28:23;100468.00;;;14.10
11849;BMP180;5983;49.966;8.052;2023-05-07T03:30:50;100464.00;;;14.00
11849;BMP180;5983;49.966;8.052;2023-05-07T03:33:17;100470.00;;;14.00
11849;BMP180;5983;49.966;8.052;2023-05-07T03:35:44;100461.00;;;14.00
11849;BMP180;5983;49.966;8.052;2023-05-07T03:38:11;100457.00;;;14.00
11849;BMP180;5983;49.966;8.052;2023-05-07T03:40:39;100467.00;;;14.00
11849;BMP180;5983;49.966;8.052;2023-05-07T03:43:05;100456.00;;;14.00
11849;BMP180;5983;49.966;8.052;2023-05-07T03:45:32;100460.00;;;14.00
11849;BMP180;5983;49.966;8.052;2023-05-07T03:47:59;100466.00;;;13.90
11849;BMP180;5983;49.966;8.052;2023-05-07T03:50:26;100461.00;;;13.90
11849;BMP180;5983;49.966;8.052;2023-05-07T03:52:52;100468.00;;;13.90
11849;BMP180;5983;49.966;8.052;2023-05-07T03:55:19;100474.00;;;13.90
11849;BMP180;5983;49.966;8.052;2023-05-07T03:57:47;100465.00;;;13.90
11849;BMP180;5983;49.966;8.052;2023-05-07T04:00:14;100478.00;;;13.90
11849;BMP180;5983;49.966;8.052;2023-05-07T04:02:41;100482.00;;;14.00
11849;BMP180;5983;49.966;8.052;2023-05-07T04:05:08;100478.00;;;14.00
11849;BMP180;5983;49.966;8.052;2023-05-07T04:07:35;100479.00;;;14.00
11849;BMP180;5983;49.966;8.052;2023-05-07T04:10:02;100488.00;;;14.00
11849;BMP180;5983;49.966;8.052;2023-05-07T04:12:28;100485.00;;;14.00
11849;BMP180;5983;49.966;8.052;2023-05-07T04:14:56;100485.00;;;14.10
11849;BMP180;5983;49.966;8.052;2023-05-07T04:19:54;100493.00;;;14.00
11849;BMP180;5983;49.966;8.052;2023-05-07T04:22:21;100494.00;;;14.00
11849;BMP180;5983;49.966;8.052;2023-05-07T04:24:47;100494.00;;;14.00
11849;BMP180;5983;49.966;8.052;2023-05-07T04:27:14;100502.00;;;14.00
11849;BMP180;5983;49.966;8.052;2023-05-07T04:29:41;100499.00;;;14.00
11849;BMP180;5983;49.966;8.052;2023-05-07T04:32:10;100496.00;;;14.10
11849;BMP180;5983;49.966;8.052;2023-05-07T04:34:36;100490.00;;;14.10
11849;BMP180;5983;49.966;8.052;2023-05-07T04:37:03;100487.00;;;14.10
11849;BMP180;5983;49.966;8.052;2023-05-07T04:39:30;100493.00;;;14.10
11849;BMP180;5983;49.966;8.052;2023-05-07T04:41:56;100486.00;;;14.10
11849;BMP180;5983;49.966;8.052;2023-05-07T04:44:23;100494.00;;;14.20
11849;BMP180;5983;49.966;8.052;2023-05-07T04:46:50;100495.00;;;14.20
11849;BMP180;5983;49.966;8.052;2023-05-07T04:49:18;100500.00;;;14.20
11849;BMP180;5983;49.966;8.052;2023-05-07T04:51:45;100503.00;;;14.20
11849;BMP180;5983;49.966;8.052;2023-05-07T04:54:11;100502.00;;;14.30
11849;BMP180;5983;49.966;8.052;2023-05-07T04:56:38;100503.00;;;14.30
11849;BMP180;5983;49.966;8.052;2023-05-07T04:59:05;100505.00;;;14.30
11849;BMP180;5983;49.966;8.052;2023-05-07T05:01:32;100501.00;;;14.30
11849;BMP180;5983;49.966;8.052;2023-05-07T05:03:58;100506.00;;;14.40
11849;BMP180;5983;49.966;8.052;2023-05-07T05:06:28;100507.00;;;14.40
11849;BMP180;5983;49.966;8.052;2023-05-07T05:08:55;100523.00;;;14.40
11849;BMP180;5983;49.966;8.052;2023-05-07T05:11:21;100526.00;;;14.50
11849;BMP180;5983;49.966;8.052;2023-05-07T05:13:49;100515.00;;;14.60
11849;BMP180;5983;49.966;8.052;2023-05-07T05:16:15;100520.00;;;14.60
11849;BMP180;5983;49.966;8.052;2023-05-07T05:18:42;100527.00;;;14.70
11849;BMP180;5983;49.966;8.052;2023-05-07T05:21:09;100528.00;;;14.80
11849;BMP180;5983;49.966;8.052;2023-05-07T05:23:37;100524.00;;;14.90
11849;BMP180;5983;49.966;8.052;2023-05-07T05:26:04;100526.00;;;15.10
11849;BMP180;5983;49.966;8.052;2023-05-07T05:28:31;100526.00;;;15.20
11849;BMP180;5983;49.966;8.052;2023-05-07T05:30:57;100519.00;;;15.30
11849;BMP180;5983;49.966;8.052;2023-05-07T05:33:24;100528.00;;;15.50
11849;BMP180;5983;49.966;8.052;2023-05-07T05:35:51;100535.00;;;15.60
11849;BMP180;5983;49.966;8.052;2023-05-07T05:38:18;100536.00;;;15.80
11849;BMP180;5983;49.966;8.052;2023-05-07T05:40:47;100535.00;;;15.90
11849;BMP180;5983;49.966;8.052;2023-05-07T05:43:14;100538.00;;;16.00
11849;BMP180;5983;49.966;8.052;2023-05-07T05:45:41;100538.00;;;16.20
11849;BMP180;5983;49.966;8.052;2023-05-07T05:48:07;100545.00;;;16.30
11849;BMP180;5983;49.966;8.052;2023-05-07T05:50:34;100541.00;;;16.40
11849;BMP180;5983;49.966;8.052;2023-05-07T05:53:02;100539.00;;;16.50
11849;BMP180;5983;49.966;8.052;2023-05-07T05:55:29;100542.00;;;16.50
11849;BMP180;5983;49.966;8.052;2023-05-07T05:57:59;100537.00;;;16.60
11849;BMP180;5983;49.966;8.052;2023-05-07T06:00:25;100544.00;;;16.60
11849;BMP180;5983;49.966;8.052;2023-05-07T06:02:52;100543.00;;;16.70
11849;BMP180;5983;49.966;8.052;2023-05-07T06:05:19;100544.00;;;16.80
11849;BMP180;5983;49.966;8.052;2023-05-07T06:07:45;100544.00;;;16.90
11849;BMP180;5983;49.966;8.052;2023-05-07T06:10:12;100535.00;;;16.90
11849;BMP180;5983;49.966;8.052;2023-05-07T06:12:39;100546.00;;;17.00
11849;BMP180;5983;49.966;8.052;2023-05-07T06:15:08;100542.00;;;17.10
11849;BMP180;5983;49.966;8.052;2023-05-07T06:17:34;100535.00;;;17.10
11849;BMP180;5983;49.966;8.052;2023-05-07T06:20:01;100540.00;;;17.10
11849;BMP180;5983;49.966;8.052;2023-05-07T06:22:28;100536.00;;;17.20
11849;BMP180;5983;49.966;8.052;2023-05-07T06:24:54;100534.00;;;17.10
11849;BMP180;5983;49.966;8.052;2023-05-07T06:27:21;100530.00;;;17.10
11849;BMP180;5983;49.966;8.052;2023-05-07T06:29:48;100532.00;;;17.20
11849;BMP180;5983;49.966;8.052;2023-05-07T06:32:16;100531.00;;;17.20
11849;BMP180;5983;49.966;8.052;2023-05-07T06:34:43;100533.00;;;17.30
11849;BMP180;5983;49.966;8.052;2023-05-07T06:37:10;100538.00;;;17.30
11849;BMP180;5983;49.966;8.052;2023-05-07T06:39:36;100545.00;;;17.40
11849;BMP180;5983;49.966;8.052;2023-05-07T06:42:03;100544.00;;;17.40
11849;BMP180;5983;49.966;8.052;2023-05-07T06:44:30;100544.00;;;17.40
11849;BMP180;5983;49.966;8.052;2023-05-07T06:46:57;100545.00;;;17.40
11849;BMP180;5983;49.966;8.052;2023-05-07T06:49:25;100549.00;;;17.40
11849;BMP180;5983;49.966;8.052;2023-05-07T06:51:52;100551.00;;;17.50
11849;BMP180;5983;49.966;8.052;2023-05-07T06:54:18;100560.00;;;17.50
11849;BMP180;5983;49.966;8.052;2023-05-07T06:56:45;100568.00;;;17.60
11849;BMP180;5983;49.966;8.052;2023-05-07T06:59:12;100557.00;;;17.60
11849;BMP180;5983;49.966;8.052;2023-05-07T07:01:39;100568.00;;;17.60
11849;BMP180;5983;49.966;8.052;2023-05-07T07:04:05;100563.00;;;17.60
11849;BMP180;5983;49.966;8.052;2023-05-07T07:06:33;100565.00;;;17.60
11849;BMP180;5983;49.966;8.052;2023-05-07T07:09:00;100561.00;;;17.50
11849;BMP180;5983;49.966;8.052;2023-05-07T07:11:27;100553.00;;;17.50
11849;BMP180;5983;49.966;8.052;2023-05-07T07:13:53;100553.00;;;17.60
11849;BMP180;5983;49.966;8.052;2023-05-07T07:16:20;100555.00;;;17.60
11849;BMP180;5983;49.966;8.052;2023-05-07T07:18:47;100554.00;;;17.70
11849;BMP180;5983;49.966;8.052;2023-05-07T07:21:14;100552.00;;;17.70
11849;BMP180;5983;49.966;8.052;2023-05-07T07:23:42;100551.00;;;17.70
11849;BMP180;5983;49.966;8.052;2023-05-07T07:26:09;100554.00;;;17.70
11849;BMP180;5983;49.966;8.052;2023-05-07T07:28:42;100560.00;;;17.80
11849;BMP180;5983;49.966;8.052;2023-05-07T07:31:08;100559.00;;;17.80
11849;BMP180;5983;49.966;8.052;2023-05-07T07:33:35;100564.00;;;17.80
11849;BMP180;5983;49.966;8.052;2023-05-07T07:36:02;100562.00;;;17.90
11849;BMP180;5983;49.966;8.052;2023-05-07T07:38:29;100564.00;;;18.00
11849;BMP180;5983;49.966;8.052;2023-05-07T07:40:57;100565.00;;;18.00
11849;BMP180;5983;49.966;8.052;2023-05-07T07:43:24;100566.00;;;18.10
11849;BMP180;5983;49.966;8.052;2023-05-07T07:45:51;100574.00;;;18.10
11849;BMP180;5983;49.966;8.052;2023-05-07T07:48:18;100574.00;;;18.20
11849;BMP180;5983;49.966;8.052;2023-05-07T07:50:45;100571.00;;;18.30
11849;BMP180;5983;49.966;8.052;2023-05-07T07:53:14;100570.00;;;18.40
11849;BMP180;5983;49.966;8.052;2023-05-07T07:55:41;100570.00;;;18.50
11849;BMP180;5983;49.966;8.052;2023-05-07T07:58:09;100576.00;;;18.60
11849;BMP180;5983;49.966;8.052;2023-05-07T08:00:36;100578.00;;;18.60
11849;BMP180;5983;49.966;8.052;2023-05-07T08:03:03;100572.00;;;18.70
11849;BMP180;5983;49.966;8.052;2023-05-07T08:05:30;100576.00;;;18.80
11849;BMP180;5983;49.966;8.052;2023-05-07T08:07:57;100572.00;;;18.90
11849;BMP180;5983;49.966;8.052;2023-05-07T08:10:24;100575.00;;;19.00
11849;BMP180;5983;49.966;8.052;2023-05-07T08:12:50;100576.00;;;19.00
11849;BMP180;5983;49.966;8.052;2023-05-07T08:15:19;100575.00;;;19.20
11849;BMP180;5983;49.966;8.052;2023-05-07T08:17:45;100570.00;;;19.30
11849;BMP180;5983;49.966;8.052;2023-05-07T08:20:12;100586.00;;;19.50
11849;BMP180;5983;49.966;8.052;2023-05-07T08:22:39;100582.00;;;19.60
11849;BMP180;5983;49.966;8.052;2023-05-07T08:25:06;100580.00;;;19.80
11849;BMP180;5983;49.966;8.052;2023-05-07T08:27:33;100580.00;;;20.00
11849;BMP180;5983;49.966;8.052;2023-05-07T08:30:00;100580.00;;;20.10
11849;BMP180;5983;49.966;8.052;2023-05-07T08:32:28;100594.00;;;20.30
11849;BMP180;5983;49.966;8.052;2023-05-07T08:34:54;100582.00;;;20.40
11849;BMP180;5983;49.966;8.052;2023-05-07T08:37:21;100591.00;;;20.50
11849;BMP180;5983;49.966;8.052;2023-05-07T08:39:48;100589.00;;;20.60
11849;BMP180;5983;49.966;8.052;2023-05-07T08:42:16;100592.00;;;20.70
11849;BMP180;5983;49.966;8.052;2023-05-07T08:44:45;100602.00;;;20.80
11849;BMP180;5983;49.966;8.052;2023-05-07T08:47:12;100598.00;;;21.10
11849;BMP180;5983;49.966;8.052;2023-05-07T08:49:41;100603.00;;;21.20
11849;BMP180;5983;49.966;8.052;2023-05-07T08:52:08;100599.00;;;21.30
11849;BMP180;5983;49.966;8.052;2023-05-07T08:54:37;100598.00;;;21.40
11849;BMP180;5983;49.966;8.052;2023-05-07T08:57:04;100605.00;;;21.60
11849;BMP180;5983;49.966;8.052;2023-05-07T08:59:30;100599.00;;;21.70
11849;BMP180;5983;49.966;8.052;2023-05-07T09:01:57;100602.00;;;21.90
11849;BMP180;5983;49.966;8.052;2023-05-07T09:04:24;100604.00;;;21.90
11849;BMP180;5983;49.966;8.052;2023-05-07T09:06:52;100602.00;;;22.00
11849;BMP180;5983;49.966;8.052;2023-05-07T09:09:19;100605.00;;;22.20
11849;BMP180;5983;49.966;8.052;2023-05-07T09:11:47;100602.00;;;22.20
11849;BMP180;5983;49.966;8.052;2023-05-07T09:14:14;100602.00;;;22.30
11849;BMP180;5983;49.966;8.052;2023-05-07T09:16:41;100602.00;;;22.40
11849;BMP180;5983;49.966;8.052;2023-05-07T09:19:07;100601.00;;;22.60
11849;BMP180;5983;49.966;8.052;2023-05-07T09:21:35;100606.00;;;22.80
11849;BMP180;5983;49.966;8.052;2023-05-07T09:24:03;100612.00;;;22.90
11849;BMP180;5983;49.966;8.052;2023-05-07T09:26:30;100606.00;;;22.90
11849;BMP180;5983;49.966;8.052;2023-05-07T09:28:58;100605.00;;;22.90
11849;BMP180;5983;49.966;8.052;2023-05-07T09:31:25;100596.00;;;22.90
11849;BMP180;5983;49.966;8.052;2023-05-07T09:33:52;100604.00;;;22.90
11849;BMP180;5983;49.966;8.052;2023-05-07T09:36:20;100597.00;;;22.80
11849;BMP180;5983;49.966;8.052;2023-05-07T09:38:47;100602.00;;;22.80
11849;BMP180;5983;49.966;8.052;2023-05-07T09:41:16;100600.00;;;23.00
11849;BMP180;5983;49.966;8.052;2023-05-07T09:43:43;100602.00;;;23.00
11849;BMP180;5983;49.966;8.052;2023-05-07T09:46:12;100600.00;;;23.20
11849;BMP180;5983;49.966;8.052;2023-05-07T09:48:40;100607.00;;;23.30
11849;BMP180;5983;49.966;8.052;2023-05-07T09:51:15;100600.00;;;23.40
11849;BMP180;5983;49.966;8.052;2023-05-07T09:53:43;100604.00;;;23.50
11849;BMP180;5983;49.966;8.052;2023-05-07T09:56:13;100593.00;;;23.70
11849;BMP180;5983;49.966;8.052;2023-05-07T09:58:43;100601.00;;;23.90
11849;BMP180;5983;49.966;8.052;2023-05-07T10:01:10;100599.00;;;24.10
11849;BMP180;5983;49.966;8.052;2023-05-07T10:03:39;100596.00;;;24.30
11849;BMP180;5983;49.966;8.052;2023-05-07T10:06:08;100594.00;;;24.50
11849;BMP180;5983;49.966;8.052;2023-05-07T10:08:35;100588.00;;;24.40
11849;BMP180;5983;49.966;8.052;2023-05-07T10:11:03;100578.00;;;24.30
11849;BMP180;5983;49.966;8.052;2023-05-07T10:13:31;100588.00;;;24.20
11849;BMP180;5983;49.966;8.052;2023-05-07T10:15:59;100590.00;;;24.10
11849;BMP180;5983;49.966;8.052;2023-05-07T10:18:26;100601.00;;;24.00
11849;BMP180;5983;49.966;8.052;2023-05-07T10:21:01;100592.00;;;24.10
11849;BMP180;5983;49.966;8.052;2023-05-07T10:23:28;100587.00;;;24.20
11849;BMP180;5983;49.966;8.052;2023-05-07T10:25:56;100582.00;;;24.30
11849;BMP180;5983;49.966;8.052;2023-05-07T10:28:24;100587.00;;;24.40
11849;BMP180;5983;49.966;8.052;2023-05-07T10:31:03;100587.00;;;24.50
11849;BMP180;5983;49.966;8.052;2023-05-07T10:33:34;100588.00;;;24.60
11849;BMP180;5983;49.966;8.052;2023-05-07T10:36:02;100582.00;;;24.70
11849;BMP180;5983;49.966;8.052;2023-05-07T10:38:30;100591.00;;;24.60
11849;BMP180;5983;49.966;8.052;2023-05-07T10:40:58;100595.00;;;24.40
11849;BMP180;5983;49.966;8.052;2023-05-07T10:43:24;100591.00;;;24.50
11849;BMP180;5983;49.966;8.052;2023-05-07T10:46:13;100595.00;;;24.40
11849;BMP180;5983;49.966;8.052;2023-05-07T10:49:06;100597.00;;;24.30
11849;BMP180;5983;49.966;8.052;2023-05-07T10:51:34;100592.00;;;24.30
11849;BMP180;5983;49.966;8.052;2023-05-07T10:54:20;100588.00;;;24.30
11849;BMP180;5983;49.966;8.052;2023-05-07T10:56:47;100588.00;;;24.40
11849;BMP180;5983;49.966;8.052;2023-05-07T10:59:45;100582.00;;;24.40
11849;BMP180;5983;49.966;8.052;2023-05-07T11:02:14;100579.00;;;24.40
11849;BMP180;5983;49.966;8.052;2023-05-07T11:04:41;100581.00;;;24.50
11849;BMP180;5983;49.966;8.052;2023-05-07T11:07:27;100577.00;;;24.70
11849;BMP180;5983;49.966;8.052;2023-05-07T11:10:05;100570.00;;;24.90
11849;BMP180;5983;49.966;8.052;2023-05-07T11:12:52;100580.00;;;24.90
11849;BMP180;5983;49.966;8.052;2023-05-07T11:15:39;100573.00;;;24.80
11849;BMP180;5983;49.966;8.052;2023-05-07T11:18:09;100577.00;;;24.80
11849;BMP180;5983;49.966;8.052;2023-05-07T11:21:00;100575.00;;;24.80
11849;BMP180;5983;49.966;8.052;2023-05-07T11:23:55;100559.00;;;25.00
11849;BMP180;5983;49.966;8.052;2023-05-07T11:26:23;100575.00;;;25.20
11849;BMP180;5983;49.966;8.052;2023-05-07T11:28:51;100571.00;;;25.30
11849;BMP180;5983;49.966;8.052;2023-05-07T11:31:21;100577.00;;;25.40
11849;BMP180;5983;49.966;8.052;2023-05-07T11:33:50;100574.00;;;25.60
11849;BMP180;5983;49.966;8.052;2023-05-07T11:36:18;100569.00;;;25.60
11849;BMP180;5983;49.966;8.052;2023-05-07T11:38:45;100565.00;;;25.70
11849;BMP180;5983;49.966;8.052;2023-05-07T11:41:11;100561.00;;;25.60
11849;BMP180;5983;49.966;8.052;2023-05-07T11:43:53;100562.00;;;25.80
11849;BMP180;5983;49.966;8.052;2023-05-07T11:46:20;100564.00;;;25.90
11849;BMP180;5983;49.966;8.052;2023-05-07T11:48:47;100565.00;;;26.00
11849;BMP180;5983;49.966;8.052;2023-05-07T11:51:19;100573.00;;;26.20
11849;BMP180;5983;49.966;8.052;2023-05-07T11:53:45;100566.00;;;26.30
11849;BMP180;5983;49.966;8.052;2023-05-07T11:56:14;100565.00;;;26.30
11849;BMP180;5983;49.966;8.052;2023-05-07T11:58:42;100563.00;;;26.30
11849;BMP180;5983;49.966;8.052;2023-05-07T12:01:10;100564.00;;;26.30
11849;BMP180;5983;49.966;8.052;2023-05-07T12:03:37;100573.00;;;26.30
11849;BMP180;5983;49.966;8.052;2023-05-07T12:06:08;100568.00;;;26.20
11849;BMP180;5983;49.966;8.052;2023-05-07T12:08:38;100573.00;;;26.10
11849;BMP180;5983;49.966;8.052;2023-05-07T12:11:07;100557.00;;;26.00
11849;BMP180;5983;49.966;8.052;2023-05-07T12:13:35;100553.00;;;26.10
11849;BMP180;5983;49.966;8.052;2023-05-07T12:16:02;100552.00;;;26.30
11849;BMP180;5983;49.966;8.052;2023-05-07T12:18:29;100558.00;;;26.40
11849;BMP180;5983;49.966;8.052;2023-05-07T12:20:57;100562.00;;;26.60
11849;BMP180;5983;49.966;8.052;2023-05-07T12:23:25;100560.00;;;26.70
11849;BMP180;5983;49.966;8.052;2023-05-07T12:25:53;100560.00;;;26.90
11849;BMP180;5983;49.966;8.052;2023-05-07T12:28:20;100553.00;;;27.00
11849;BMP180;5983;49.966;8.052;2023-05-07T12:30:48;100556.00;;;27.10
11849;BMP180;5983;49.966;8.052;2023-05-07T12:33:16;100556.00;;;27.00
11849;BMP180;5983;49.966;8.052;2023-05-07T12:35:43;100552.00;;;26.90
11849;BMP180;5983;49.966;8.052;2023-05-07T12:38:12;100559.00;;;26.90
11849;BMP180;5983;49.966;8.052;2023-05-07T12:40:40;100564.00;;;26.90
11849;BMP180;5983;49.966;8.052;2023-05-07T12:43:15;100555.00;;;27.00
11849;BMP180;5983;49.966;8.052;2023-05-07T12:45:42;100550.00;;;26.90
11849;BMP180;5983;49.966;8.052;2023-05-07T12:48:09;100548.00;;;26.90
11849;BMP180;5983;49.966;8.052;2023-05-07T12:50:36;100547.00;;;26.80
11849;BMP180;5983;49.966;8.052;2023-05-07T12:53:04;100548.00;;;27.00
11849;BMP180;5983;49.966;8.052;2023-05-07T12:55:32;100553.00;;;27.00
11849;BMP180;5983;49.966;8.052;2023-05-07T12:58:06;100541.00;;;27.00
11849;BMP180;5983;49.966;8.052;2023-05-07T13:00:36;100545.00;;;27.20
11849;BMP180;5983;49.966;8.052;2023-05-07T13:03:03;100545.00;;;27.30
11849;BMP180;5983;49.966;8.052;2023-05-07T13:05:31;100538.00;;;27.40
11849;BMP180;5983;49.966;8.052;2023-05-07T13:07:58;100546.00;;;27.40
11849;BMP180;5983;49.966;8.052;2023-05-07T13:10:26;100538.00;;;27.50
11849;BMP180;5983;49.966;8.052;2023-05-07T13:12:53;100542.00;;;27.30
11849;BMP180;5983;49.966;8.052;2023-05-07T13:15:20;100530.00;;;27.30
11849;BMP180;5983;49.966;8.052;2023-05-07T13:17:50;100534.00;;;27.40
11849;BMP180;5983;49.966;8.052;2023-05-07T13:20:16;100526.00;;;27.50
11849;BMP180;5983;49.966;8.052;2023-05-07T13:22:43;100522.00;;;27.50
11849;BMP180;5983;49.966;8.052;2023-05-07T13:25:10;100522.00;;;27.50
11849;BMP180;5983;49.966;8.052;2023-05-07T13:27:36;100523.00;;;27.40
11849;BMP180;5983;49.966;8.052;2023-05-07T13:30:04;100513.00;;;27.30
11849;BMP180;5983;49.966;8.052;2023-05-07T13:32:32;100510.00;;;27.30
11849;BMP180;5983;49.966;8.052;2023-05-07T13:35:00;100516.00;;;27.20
11849;BMP180;5983;49.966;8.052;2023-05-07T13:37:27;100513.00;;;27.20
11849;BMP180;5983;49.966;8.052;2023-05-07T13:39:53;100508.00;;;27.30
11849;BMP180;5983;49.966;8.052;2023-05-07T13:42:20;100506.00;;;27.50
11849;BMP180;5983;49.966;8.052;2023-05-07T13:44:47;100508.00;;;27.70
11849;BMP180;5983;49.966;8.052;2023-05-07T13:47:13;100501.00;;;27.60
11849;BMP180;5983;49.966;8.052;2023-05-07T13:49:40;100500.00;;;27.60
11849;BMP180;5983;49.966;8.052;2023-05-07T13:52:08;100495.00;;;27.60
11849;BMP180;5983;49.966;8.052;2023-05-07T13:54:35;100495.00;;;27.60
11849;BMP180;5983;49.966;8.052;2023-05-07T13:57:01;100500.00;;;27.40
11849;BMP180;5983;49.966;8.052;2023-05-07T13:59:28;100495.00;;;27.00
11849;BMP180;5983;49.966;8.052;2023-05-07T14:01:55;100490.00;;;26.70
11849;BMP180;5983;49.966;8.052;2023-05-07T14:04:21;100494.00;;;26.40
11849;BMP180;5983;49.966;8.052;2023-05-07T14:06:48;100490.00;;;26.20
11849;BMP180;5983;49.966;8.052;2023-05-07T14:09:16;100492.00;;;25.90
11849;BMP180;5983;49.966;8.052;2023-05-07T14:11:43;100496.00;;;25.70
11849;BMP180;5983;49.966;8.052;2023-05-07T14:14:11;100492.00;;;25.60
11849;BMP180;5983;49.966;8.052;2023-05-07T14:16:38;100502.00;;;25.70